This is the latest recevied weather packets stored in our database for station/object KB4KY. If no packets are shown the sender has not sent any weather packets the latest 1 day(s).
| Time | Temp. | Humidity | Pressure | Rain* | Wind** | Luminosity | Snow |
|---|---|---|---|---|---|---|---|
| 1777996041 | 21.11° C | 64% | 1009.8 hPa | 0 mm | 1.34 m/s, 225° | - | - |
| 1777995739 | 21.11° C | 66% | 1009.8 hPa | 0 mm | 0 m/s | - | - |
| 1777995441 | 21.11° C | 64% | 1009.8 hPa | 0 mm | 1.34 m/s, 237° | - | - |
| 1777995140 | 21.11° C | 65% | 1009.8 hPa | 0 mm | 1.34 m/s, 227° | - | - |
| 1777994840 | 21.11° C | 64% | 1009.8 hPa | 0 mm | 0.89 m/s, 229° | - | - |
| 1777994538 | 21.11° C | 66% | 1009.8 hPa | 0 mm | 0 m/s | - | - |
| 1777994239 | 21.11° C | 65% | 1009.8 hPa | 0 mm | 0 m/s | - | - |
| 1777993939 | 21.11° C | 65% | 1009.7 hPa | 0 mm | 0.89 m/s, 239° | - | - |
| 1777993639 | 21.11° C | 64% | 1009.6 hPa | 0 mm | 0.45 m/s, 253° | - | - |
| 1777993339 | 20.56° C | 66% | 1009.5 hPa | 0 mm | 0 m/s | - | - |
| 1777993046 | 20.56° C | 67% | 1009.5 hPa | 0 mm | 0.45 m/s, 243° | - | - |
| 1777992744 | 20° C | 66% | 1009.5 hPa | 0 mm | 2.24 m/s, 196° | - | - |
| 1777992438 | 20.56° C | 68% | 1009.5 hPa | 0 mm | 1.34 m/s, 205° | - | - |
| 1777992137 | 20° C | 65% | 1009.5 hPa | 0 mm | 0.45 m/s, 196° | - | - |
| 1777991849 | 20° C | 67% | 1009.4 hPa | 0 mm | 0.45 m/s, 194° | - | - |
| 1777991537 | 20° C | 67% | 1009.4 hPa | 0 mm | 0.45 m/s, 213° | - | - |
| 1777991237 | 20° C | 66% | 1009.3 hPa | 0 mm | 0.89 m/s, 220° | - | - |
| 1777990940 | 20° C | 67% | 1009.3 hPa | 0 mm | 0.45 m/s, 230° | - | - |
| 1777990641 | 19.44° C | 67% | 1009.2 hPa | 0 mm | 1.34 m/s, 230° | - | - |
| 1777990336 | 19.44° C | 66% | 1009.1 hPa | 0 mm | 0.45 m/s, 223° | - | - |
| 1777990035 | 19.44° C | 69% | 1009.2 hPa | 0 mm | 0.89 m/s, 172° | - | - |
| 1777989807 | 19.44° C | 69% | 1009.3 hPa | 0 mm | 0.45 m/s, 265° | - | - |
| 1777989807 | 18.89° C | 69% | 1009.2 hPa | 0 mm | 0.89 m/s, 217° | - | - |
| 1777989735 | 19.44° C | 69% | 1009.3 hPa | 0 mm | 0.45 m/s, 265° | - | - |
| 1777989434 | 18.89° C | 69% | 1009.2 hPa | 0 mm | 0.89 m/s, 217° | - | - |
* Rain latest hour (hover to see other rain measurements)
** Current wind speed in m/s (hover to see current wind gust speed)